Time;durP1;ratioP1;P1;durP2;ratioP2;P2;SDS_P1;SDS_P2;PMS_P1;PMS_P2;Temp;Humidity;BMP_temperature;BMP_pressure;BME280_temperature;BME280_humidity;BME280_pressure;Samples;Min_cycle;Max_cycle;Signal;HPM_P1;HPM_P2
2021/11/21 00:00:42;;;;;;;14.27;5.45;;;;;;;9.09;76.04;101431.69;5042479;28;20029;-58
2021/11/21 00:03:08;;;;;;;10.95;4.75;;;;;;;9.18;75.29;101425.88;5037952;28;20048;-59
2021/11/21 00:05:33;;;;;;;11.20;4.75;;;;;;;9.19;75.29;101428.41;5045163;28;20132;-58
2021/11/21 00:07:58;;;;;;;11.90;4.68;;;;;;;9.18;75.30;101420.59;5039758;28;20056;-56
2021/11/21 00:10:24;;;;;;;11.35;4.50;;;;;;;9.16;75.40;101423.34;5040417;28;20044;-56
2021/11/21 00:12:49;;;;;;;8.68;4.30;;;;;;;9.15;75.27;101416.34;5043217;28;20397;-57
2021/11/21 00:15:15;;;;;;;8.27;4.63;;;;;;;9.18;75.09;101415.31;5040577;28;20044;-57
2021/11/21 00:17:40;;;;;;;9.65;4.30;;;;;;;9.22;74.99;101416.81;5038366;28;20028;-56
2021/11/21 00:20:06;;;;;;;11.10;4.00;;;;;;;9.27;75.16;101416.53;5039111;28;20037;-58
2021/11/21 00:22:35;;;;;;;9.15;4.35;;;;;;;9.26;74.90;101402.50;5041855;28;20076;-57
2021/11/21 00:25:02;;;;;;;6.95;3.90;;;;;;;9.27;75.12;101405.97;5038379;28;20563;-57
2021/11/21 00:27:27;;;;;;;10.05;3.95;;;;;;;9.27;74.88;101400.69;5039740;28;20116;-57
2021/11/21 00:29:54;;;;;;;8.10;4.28;;;;;;;9.28;75.05;101386.56;5040124;28;20184;-57
2021/11/21 00:32:19;;;;;;;11.02;4.35;;;;;;;9.24;74.85;101399.13;5044789;28;20068;-56
2021/11/21 00:34:45;;;;;;;8.90;3.70;;;;;;;9.26;75.31;101386.66;5038934;28;20543;-56
2021/11/21 00:37:10;;;;;;;9.68;4.00;;;;;;;9.24;75.30;101399.13;5037414;28;20513;-58
2021/11/21 00:39:36;;;;;;;8.73;4.18;;;;;;;9.20;75.42;101392.28;5044539;28;20112;-58
2021/11/21 00:42:01;;;;;;;10.55;4.38;;;;;;;9.21;76.44;101388.72;5041457;28;20049;-56
2021/11/21 00:44:26;;;;;;;7.65;3.30;;;;;;;9.19;76.41;101380.91;5039190;28;20018;-56
2021/11/21 00:46:52;;;;;;;11.77;4.07;;;;;;;9.24;76.74;101388.56;5039743;28;20029;-55
2021/11/21 00:49:18;;;;;;;7.65;3.70;;;;;;;9.22;76.66;101387.78;5041136;28;20029;-57
2021/11/21 00:51:44;;;;;;;12.50;4.00;;;;;;;9.20;76.90;101389.66;5041148;28;20044;-56
2021/11/21 00:54:27;;;;;;;11.40;4.40;;;;;;;9.14;76.87;101397.97;5040308;28;20041;-58
2021/11/21 00:56:53;;;;;;;8.45;3.92;;;;;;;9.18;77.55;101394.19;5041647;28;20045;-57
2021/11/21 00:59:21;;;;;;;12.85;4.40;;;;;;;9.10;77.85;101391.16;5040464;28;20469;-57
2021/11/21 01:01:51;;;;;;;10.20;3.80;;;;;;;9.12;78.76;101384.00;5040499;28;20080;-56
2021/11/21 01:04:17;;;;;;;9.98;3.85;;;;;;;9.19;78.59;101383.53;5043993;28;20405;-54
2021/11/21 01:06:43;;;;;;;10.02;4.22;;;;;;;9.23;79.67;101371.84;5043591;28;20055;-57
2021/11/21 01:09:08;;;;;;;10.75;4.38;;;;;;;9.23;79.80;101371.00;5040700;28;20029;-58
2021/11/21 01:11:34;;;;;;;9.18;4.57;;;;;;;9.21;80.94;101372.88;5041307;28;20051;-56
2021/11/21 01:13:59;;;;;;;12.38;4.50;;;;;;;9.16;81.07;101365.25;5037945;28;20521;-59
2021/11/21 01:16:26;;;;;;;13.40;4.45;;;;;;;9.22;80.74;101366.66;5042123;28;20041;-58
2021/11/21 01:18:51;;;;;;;11.30;3.70;;;;;;;9.28;80.75;101360.16;5038037;28;20033;-56
2021/11/21 01:21:17;;;;;;;13.25;4.30;;;;;;;9.26;81.10;101368.19;5038554;28;20474;-57
2021/11/21 01:23:43;;;;;;;11.55;4.72;;;;;;;9.23;81.95;101361.28;5040791;28;20087;-58
2021/11/21 01:26:08;;;;;;;13.27;4.45;;;;;;;9.17;81.81;101361.66;5037128;28;20025;-60
2021/11/21 01:28:33;;;;;;;14.10;5.57;;;;;;;9.14;82.68;101355.72;5035384;28;20449;-58
2021/11/21 01:30:59;;;;;;;11.60;4.20;;;;;;;9.09;82.87;101353.34;5037190;28;20649;-58
2021/11/21 01:33:24;;;;;;;14.70;5.07;;;;;;;9.04;83.92;101350.97;5038774;28;20547;-57
2021/11/21 01:35:49;;;;;;;17.45;4.93;;;;;;;9.09;83.52;101355.16;5044349;28;20072;-58
2021/11/21 01:38:15;;;;;;;12.38;4.53;;;;;;;9.09;83.36;101345.44;5037373;28;20108;-57
2021/11/21 01:40:41;;;;;;;10.98;4.55;;;;;;;9.07;83.79;101349.94;5039776;28;20390;-55
2021/11/21 01:43:07;;;;;;;12.02;5.10;;;;;;;8.98;83.83;101350.50;5038139;28;20033;-58
2021/11/21 01:45:33;;;;;;;10.50;4.20;;;;;;;8.97;84.08;101343.50;5036566;28;20084;-56
2021/11/21 01:47:59;;;;;;;14.63;5.05;;;;;;;9.02;84.06;101336.16;5035532;28;20370;-56
2021/11/21 01:50:30;;;;;;;10.50;4.78;;;;;;;9.00;84.59;101343.34;5041178;28;20045;-57
2021/11/21 01:52:56;;;;;;;15.98;5.07;;;;;;;8.99;84.42;101337.19;5038303;28;20053;-56
2021/11/21 01:55:22;;;;;;;20.70;5.55;;;;;;;8.96;84.50;101332.13;5038734;28;20155;-57
2021/11/21 01:57:47;;;;;;;14.02;5.13;;;;;;;8.95;84.88;101330.41;5038775;28;20032;-57
2021/11/21 02:00:14;;;;;;;10.82;5.32;;;;;;;8.94;84.96;101323.44;5038215;28;20033;-56
2021/11/21 02:02:40;;;;;;;9.50;4.60;;;;;;;9.02;84.50;101326.47;5037891;28;20477;-56
2021/11/21 02:05:05;;;;;;;10.88;4.88;;;;;;;8.97;84.85;101325.91;5033032;28;20044;-57
2021/11/21 02:07:31;;;;;;;15.20;5.75;;;;;;;8.90;84.71;101316.66;5037193;28;20028;-56
2021/11/21 02:09:57;;;;;;;12.90;5.82;;;;;;;8.90;84.77;101321.91;5036394;28;20037;-57
2021/11/21 02:12:23;;;;;;;15.25;5.70;;;;;;;8.89;85.30;101307.03;5038308;28;20072;-58
2021/11/21 02:14:48;;;;;;;11.45;5.80;;;;;;;8.98;85.19;101306.50;5036960;28;20065;-58
2021/11/21 02:17:14;;;;;;;9.40;4.10;;;;;;;9.11;84.31;101303.97;5034285;28;20087;-57
2021/11/21 02:19:39;;;;;;;15.65;5.60;;;;;;;9.07;84.78;101303.31;5039147;28;20033;-56
2021/11/21 02:22:05;;;;;;;12.98;5.47;;;;;;;9.08;84.56;101304.13;5040498;28;20030;-58
2021/11/21 02:24:31;;;;;;;11.73;5.15;;;;;;;9.13;84.17;101295.97;5037686;28;20116;-55
2021/11/21 02:26:56;;;;;;;12.18;6.18;;;;;;;9.05;84.73;101299.06;5038567;28;20041;-56
2021/11/21 02:29:21;;;;;;;13.52;5.80;;;;;;;9.05;84.54;101291.97;5040292;28;20048;-57
2021/11/21 02:31:47;;;;;;;8.32;4.68;;;;;;;9.09;84.68;101289.16;5038333;28;20033;-57
2021/11/21 02:34:12;;;;;;;10.25;5.90;;;;;;;9.08;85.07;101288.31;5037221;28;20045;-57
2021/11/21 02:36:42;;;;;;;10.30;5.40;;;;;;;9.09;84.89;101273.34;5036053;28;20474;-57
2021/11/21 02:39:07;;;;;;;11.80;5.88;;;;;;;9.12;84.78;101273.97;5036528;28;20029;-56
2021/11/21 02:41:33;;;;;;;12.93;5.82;;;;;;;9.06;85.32;101280.47;5046178;28;20121;-56
2021/11/21 02:43:58;;;;;;;9.75;6.47;;;;;;;8.99;85.67;101263.31;5037354;28;20022;-56
2021/11/21 02:46:23;;;;;;;14.40;6.32;;;;;;;8.95;85.91;101266.25;5039329;28;20504;-56
2021/11/21 02:48:49;;;;;;;12.68;5.68;;;;;;;8.93;86.67;101265.47;5039462;28;20037;-57
2021/11/21 02:51:15;;;;;;;10.25;6.13;;;;;;;8.94;86.33;101252.19;5044774;28;20021;-56
2021/11/21 02:53:41;;;;;;;9.40;5.05;;;;;;;8.98;86.58;101251.09;5041500;28;20039;-57
2021/11/21 02:56:10;;;;;;;8.23;5.00;;;;;;;9.04;86.49;101245.41;5037352;28;20034;-56
2021/11/21 02:58:36;;;;;;;12.02;5.53;;;;;;;9.02;86.52;101239.41;5039037;28;20040;-57
2021/11/21 03:01:09;;;;;;;9.25;5.43;;;;;;;9.05;86.31;101241.84;5038408;28;20044;-57
2021/11/21 03:03:34;;;;;;;10.82;3.95;;;;;;;9.18;85.64;101236.66;5034624;28;20067;-57
2021/11/21 03:06:00;;;;;;;13.88;5.15;;;;;;;9.16;85.83;101240.31;5039871;28;20060;-56
2021/11/21 03:08:26;;;;;;;9.25;4.53;;;;;;;9.14;86.12;101235.16;5040271;28;20045;-57
2021/11/21 03:10:53;;;;;;;14.90;4.90;;;;;;;9.11;86.07;101239.75;5039111;28;20061;-55
2021/11/21 03:13:18;;;;;;;12.50;4.45;;;;;;;9.13;86.47;101236.06;5038004;28;20030;-56
2021/11/21 03:15:43;;;;;;;12.70;4.30;;;;;;;9.19;85.83;101241.00;5036189;28;20039;-56
2021/11/21 03:18:09;;;;;;;11.48;4.15;;;;;;;9.27;86.07;101240.50;5041602;28;20034;-56
2021/11/21 03:20:35;;;;;;;10.13;3.30;;;;;;;9.38;85.18;101234.53;5041654;28;20029;-58
2021/11/21 03:23:02;;;;;;;8.07;2.70;;;;;;;9.43;84.93;101240.38;5044361;28;20033;-56
2021/11/21 03:25:28;;;;;;;5.95;2.45;;;;;;;9.50;84.56;101225.00;5037768;28;20078;-58
2021/11/21 03:27:53;;;;;;;9.18;2.25;;;;;;;9.52;83.99;101221.31;5044737;28;20029;-56
2021/11/21 03:30:21;;;;;;;7.45;2.13;;;;;;;9.54;83.18;101223.88;5045443;28;20202;-57
2021/11/21 03:32:47;;;;;;;6.75;1.90;;;;;;;9.47;83.32;101222.56;5038319;28;20123;-58
2021/11/21 03:35:13;;;;;;;4.05;1.48;;;;;;;9.44;83.15;101230.69;5041164;28;20406;-57
2021/11/21 03:37:39;;;;;;;8.43;1.60;;;;;;;9.41;83.32;101226.44;5043039;28;20044;-58
2021/11/21 03:40:07;;;;;;;9.95;1.80;;;;;;;9.41;83.09;101237.00;5040986;28;20036;-57
2021/11/21 03:42:32;;;;;;;8.00;1.70;;;;;;;9.38;83.30;101235.41;5039241;28;20033;-59
2021/11/21 03:44:58;;;;;;;10.00;1.75;;;;;;;9.37;82.75;101235.50;5043734;28;20028;-57
2021/11/21 03:47:23;;;;;;;8.40;1.70;;;;;;;9.39;83.04;101239.72;5041279;28;20346;-56
2021/11/21 03:49:48;;;;;;;10.00;1.70;;;;;;;9.40;83.06;101236.16;5037306;28;20037;-56
2021/11/21 03:52:14;;;;;;;9.40;1.80;;;;;;;9.38;82.63;101237.19;5039821;28;20043;-60
2021/11/21 03:54:40;;;;;;;8.63;1.30;;;;;;;9.35;82.26;101230.31;5040980;28;20127;-58
2021/11/21 03:57:05;;;;;;;6.38;1.58;;;;;;;9.32;82.51;101238.44;5042701;28;20037;-59
2021/11/21 03:59:31;;;;;;;9.40;1.80;;;;;;;9.27;82.20;101240.50;5040663;28;20047;-57
2021/11/21 04:01:58;;;;;;;5.88;1.30;;;;;;;9.22;82.49;101235.50;5041857;28;20033;-57
2021/11/21 04:04:25;;;;;;;6.72;1.52;;;;;;;9.19;82.79;101238.34;5043542;28;20068;-57
2021/11/21 04:06:50;;;;;;;8.75;1.95;;;;;;;9.14;82.56;101235.16;5042008;28;20033;-56
2021/11/21 04:09:16;;;;;;;12.18;1.85;;;;;;;9.15;83.05;101238.63;5037380;28;20371;-56
2021/11/21 04:11:41;;;;;;;9.05;1.65;;;;;;;9.13;82.69;101233.44;5038971;28;20095;-56
2021/11/21 04:14:06;;;;;;;6.15;1.45;;;;;;;9.19;81.87;101233.06;5037293;28;20551;-57
2021/11/21 04:16:32;;;;;;;6.40;1.52;;;;;;;9.20;81.47;101231.25;5039075;28;20037;-58
2021/11/21 04:18:57;;;;;;;9.23;1.83;;;;;;;9.21;81.13;101246.16;5042023;28;20053;-57
2021/11/21 04:21:23;;;;;;;8.85;1.38;;;;;;;9.20;80.95;101231.25;5040522;28;20064;-58
2021/11/21 04:23:48;;;;;;;7.05;1.50;;;;;;;9.21;80.79;101238.25;5041262;28;20055;-58
2021/11/21 04:26:15;;;;;;;10.05;2.10;;;;;;;9.16;80.67;101238.56;5038800;28;20026;-59
2021/11/21 04:28:41;;;;;;;7.28;1.80;;;;;;;9.19;80.13;101243.63;5041495;28;20033;-58
2021/11/21 04:31:06;;;;;;;10.90;2.00;;;;;;;9.17;79.79;101242.84;5039987;28;20041;-58
2021/11/21 04:33:32;;;;;;;9.77;1.52;;;;;;;9.15;79.47;101243.91;5041841;28;20542;-57
2021/11/21 04:35:57;;;;;;;7.18;1.48;;;;;;;9.12;79.52;101244.94;5043678;28;20466;-58
2021/11/21 04:38:24;;;;;;;9.63;1.90;;;;;;;9.12;79.84;101252.03;5041247;28;20017;-56
2021/11/21 04:40:51;;;;;;;9.40;1.77;;;;;;;9.08;79.63;101240.78;5038541;28;20029;-57
2021/11/21 04:43:16;;;;;;;8.15;1.95;;;;;;;9.02;79.73;101239.41;5040251;28;20037;-58
2021/11/21 04:45:42;;;;;;;8.00;1.85;;;;;;;9.00;79.72;101240.44;5042870;28;20112;-58
2021/11/21 04:48:07;;;;;;;10.70;2.10;;;;;;;9.03;80.29;101246.38;5039701;28;20021;-56
2021/11/21 04:50:33;;;;;;;11.85;1.88;;;;;;;8.99;79.81;101242.19;5038198;28;20037;-57
2021/11/21 04:52:58;;;;;;;8.02;1.60;;;;;;;8.99;80.15;101246.63;5037042;28;20373;-58
2021/11/21 04:55:23;;;;;;;8.63;2.03;;;;;;;9.03;79.67;101242.88;5039586;28;20038;-58
2021/11/21 04:57:49;;;;;;;9.23;1.83;;;;;;;9.05;79.50;101241.00;5041493;28;20021;-58
2021/11/21 05:00:18;;;;;;;10.18;1.90;;;;;;;9.02;79.61;101235.88;5035828;28;20064;-59
2021/11/21 05:02:44;;;;;;;9.02;1.83;;;;;;;8.97;79.22;101241.47;5038512;28;20033;-58
2021/11/21 05:05:10;;;;;;;10.40;1.58;;;;;;;9.01;79.93;101235.06;5042213;28;20038;-56
2021/11/21 05:07:35;;;;;;;16.45;2.08;;;;;;;8.97;79.56;101233.53;5039794;28;20040;-53
2021/11/21 05:10:02;;;;;;;8.48;1.38;;;;;;;8.94;79.86;101225.81;5037036;28;20432;-59
2021/11/21 05:12:27;;;;;;;10.30;1.80;;;;;;;8.91;79.90;101236.56;5043288;28;20049;-58
2021/11/21 05:14:54;;;;;;;7.97;1.75;;;;;;;8.86;80.24;101236.81;5042798;28;20155;-56
2021/11/21 05:17:20;;;;;;;12.40;2.28;;;;;;;8.85;80.36;101239.56;5036437;28;20041;-56
2021/11/21 05:19:45;;;;;;;6.88;1.77;;;;;;;8.82;80.45;101235.31;5037886;28;20038;-58
2021/11/21 05:22:10;;;;;;;4.82;1.40;;;;;;;8.79;80.26;101239.91;5042116;28;20032;-56
2021/11/21 05:24:36;;;;;;;8.70;1.92;;;;;;;8.78;80.51;101239.09;5039071;28;20036;-59
2021/11/21 05:27:01;;;;;;;15.93;1.95;;;;;;;8.76;80.34;101240.94;5038986;28;20444;-59
2021/11/21 05:29:26;;;;;;;10.45;2.10;;;;;;;8.76;80.32;101242.75;5036930;28;20458;-58
2021/11/21 05:31:52;;;;;;;13.13;2.00;;;;;;;8.77;79.71;101241.81;5038049;28;20033;-56
2021/11/21 05:34:17;;;;;;;11.02;2.00;;;;;;;8.79;78.82;101239.91;5037680;28;20033;-58
2021/11/21 05:36:44;;;;;;;14.45;2.25;;;;;;;8.79;78.58;101245.19;5042660;28;20037;-58
2021/11/21 05:39:09;;;;;;;18.48;2.08;;;;;;;8.76;78.44;101234.84;5039259;28;20026;-57
2021/11/21 05:41:35;;;;;;;13.80;2.25;;;;;;;8.75;78.15;101231.38;5042493;28;20501;-58
2021/11/21 05:44:00;;;;;;;17.23;2.78;;;;;;;8.72;77.80;101232.41;5035645;28;20036;-58
2021/11/21 05:46:25;;;;;;;11.77;1.98;;;;;;;8.74;77.12;101233.13;5038218;28;20059;-57
2021/11/21 05:48:53;;;;;;;13.45;2.42;;;;;;;8.76;76.54;101240.94;5039551;28;20090;-58
2021/11/21 05:51:18;;;;;;;13.23;2.53;;;;;;;8.77;75.28;101236.53;5038058;28;20079;-58
2021/11/21 05:53:44;;;;;;;15.85;2.67;;;;;;;8.79;75.24;101234.66;5036362;28;20049;-57
2021/11/21 05:56:09;;;;;;;13.70;2.20;;;;;;;8.79;74.68;101232.00;5038440;28;20124;-56
2021/11/21 05:58:34;;;;;;;11.18;2.40;;;;;;;8.76;74.33;101226.94;5042847;28;20454;-59
2021/11/21 06:01:00;;;;;;;10.90;2.05;;;;;;;8.71;74.45;101228.06;5037959;28;20029;-58
2021/11/21 06:03:26;;;;;;;10.73;2.75;;;;;;;8.69;73.82;101229.09;5035930;28;20029;-59
2021/11/21 06:05:51;;;;;;;13.75;2.40;;;;;;;8.71;73.65;101228.06;5037453;28;20041;-57
2021/11/21 06:08:16;;;;;;;16.02;2.42;;;;;;;8.73;73.62;101230.59;5036255;28;20496;-55
2021/11/21 06:10:42;;;;;;;11.27;2.35;;;;;;;8.79;73.31;101230.22;5038099;28;20048;-58
2021/11/21 06:13:08;;;;;;;12.52;2.05;;;;;;;8.81;72.63;101235.41;5044848;28;20112;-58
2021/11/21 06:15:33;;;;;;;9.88;1.92;;;;;;;8.80;72.98;101231.94;5037479;28;20052;-59
2021/11/21 06:17:58;;;;;;;13.60;2.25;;;;;;;8.80;72.36;101236.34;5038413;28;20477;-60
2021/11/21 06:20:24;;;;;;;6.40;2.28;;;;;;;8.81;72.04;101235.41;5036753;28;20500;-59
2021/11/21 06:22:49;;;;;;;8.43;1.73;;;;;;;8.85;71.11;101234.28;5038180;28;20064;-58
2021/11/21 06:25:15;;;;;;;14.15;1.98;;;;;;;8.80;70.74;101234.56;5034742;28;20064;-58
2021/11/21 06:27:40;;;;;;;8.18;1.80;;;;;;;8.82;70.49;101239.75;5035897;28;20032;-57
2021/11/21 06:30:06;;;;;;;9.18;2.05;;;;;;;8.88;69.30;101228.84;5042164;28;20084;-56
2021/11/21 06:32:32;;;;;;;10.07;2.28;;;;;;;8.94;70.23;101225.81;5038068;28;20083;-60
2021/11/21 06:34:58;;;;;;;11.70;2.03;;;;;;;9.11;69.82;101234.47;5043786;28;20515;-60
2021/11/21 06:37:23;;;;;;;13.35;2.53;;;;;;;9.16;69.81;101232.41;5039299;28;20037;-61
2021/11/21 06:39:48;;;;;;;9.40;1.70;;;;;;;9.12;69.55;101230.91;5041619;28;20411;-59
2021/11/21 06:42:14;;;;;;;11.18;2.20;;;;;;;9.06;70.55;101232.97;5036549;28;20457;-58
2021/11/21 06:44:41;;;;;;;10.32;1.70;;;;;;;9.06;70.35;101238.25;5039550;28;20123;-59
2021/11/21 06:47:06;;;;;;;11.93;2.80;;;;;;;9.01;70.80;101245.59;5042801;28;20037;-59
2021/11/21 06:49:32;;;;;;;12.82;2.13;;;;;;;8.94;71.41;101233.72;5036037;28;20025;-59
2021/11/21 06:51:57;;;;;;;9.23;1.95;;;;;;;8.85;72.03;101244.84;5037069;28;20030;-59
2021/11/21 06:54:23;;;;;;;10.00;2.08;;;;;;;8.77;72.27;101244.47;5044192;28;20068;-59
2021/11/21 06:56:48;;;;;;;13.48;2.70;;;;;;;8.69;72.54;101237.84;5043676;28;20041;-60
2021/11/21 06:59:13;;;;;;;13.90;2.58;;;;;;;8.78;72.51;101243.53;5039336;28;20420;-59
2021/11/21 07:01:41;;;;;;;12.77;2.35;;;;;;;8.80;71.77;101236.34;5042919;28;20025;-59
2021/11/21 07:04:06;;;;;;;10.63;2.10;;;;;;;8.84;70.51;101251.03;5042607;28;20025;-58
2021/11/21 07:06:36;;;;;;;7.80;1.75;;;;;;;8.80;70.15;101253.03;5042759;28;20033;-58
2021/11/21 07:09:04;;;;;;;9.70;2.40;;;;;;;8.74;70.17;101251.59;5036629;28;20394;-60
2021/11/21 07:11:29;;;;;;;8.25;1.73;;;;;;;8.72;69.06;101256.13;5043657;28;20030;-60
2021/11/21 07:13:55;;;;;;;12.52;2.53;;;;;;;8.73;69.85;101262.25;5039323;28;20099;-60
2021/11/21 07:16:20;;;;;;;11.75;2.20;;;;;;;8.70;69.60;101263.28;5036772;28;20065;-59
2021/11/21 07:18:46;;;;;;;12.02;2.05;;;;;;;8.67;70.25;101260.84;5042158;28;20135;-59
2021/11/21 07:21:11;;;;;;;9.95;2.13;;;;;;;8.58;70.47;101269.31;5043900;28;20072;-59
2021/11/21 07:23:36;;;;;;;15.13;2.75;;;;;;;8.53;70.47;101266.09;5043893;28;20749;-59
2021/11/21 07:26:03;;;;;;;15.05;2.75;;;;;;;8.48;70.58;101268.13;5036832;28;20501;-59
2021/11/21 07:28:29;;;;;;;15.85;2.90;;;;;;;8.40;70.66;101265.91;5041107;28;20094;-58
2021/11/21 07:30:54;;;;;;;11.20;1.83;;;;;;;8.34;70.65;101267.09;5036924;28;20045;-58
2021/11/21 07:33:19;;;;;;;12.00;2.35;;;;;;;8.28;71.31;101272.72;5045314;28;20462;-61
2021/11/21 07:35:45;;;;;;;9.48;2.05;;;;;;;8.19;70.78;101270.63;5039306;28;20041;-59
2021/11/21 07:38:10;;;;;;;16.92;2.58;;;;;;;8.17;71.04;101269.88;5038815;28;20038;-58
2021/11/21 07:40:35;;;;;;;12.30;2.83;;;;;;;8.18;71.09;101271.56;5038812;28;20048;-59
2021/11/21 07:43:01;;;;;;;9.63;2.03;;;;;;;8.19;71.40;101278.53;5039605;28;20183;-59
2021/11/21 07:45:27;;;;;;;12.52;2.42;;;;;;;8.19;71.83;101284.66;5036880;28;20057;-59
2021/11/21 07:47:53;;;;;;;11.82;2.28;;;;;;;8.25;70.94;101294.00;5037766;28;20033;-58
2021/11/21 07:50:18;;;;;;;11.88;2.40;;;;;;;8.22;71.32;101302.09;5042953;28;20033;-60
2021/11/21 07:52:44;;;;;;;13.52;2.28;;;;;;;8.17;71.97;101291.81;5043432;28;20110;-59
2021/11/21 07:55:10;;;;;;;10.25;1.90;;;;;;;8.12;73.50;101282.47;5041505;28;20033;-60
2021/11/21 07:57:35;;;;;;;11.77;2.03;;;;;;;8.04;74.13;101291.66;5038566;28;20025;-59
2021/11/21 08:00:02;;;;;;;14.95;2.22;;;;;;;8.05;74.07;101287.22;5041955;28;20642;-59
2021/11/21 08:02:27;;;;;;;12.15;2.22;;;;;;;8.01;73.51;101291.84;5042836;28;20554;-60
2021/11/21 08:04:53;;;;;;;21.25;4.28;;;;;;;8.00;73.88;101287.50;5040932;28;20080;-60
2021/11/21 08:07:18;;;;;;;12.27;2.45;;;;;;;8.03;73.87;101289.94;5038045;28;20120;-60
2021/11/21 08:09:43;;;;;;;14.50;2.15;;;;;;;8.09;73.41;101294.03;5036141;28;20114;-60
2021/11/21 08:12:09;;;;;;;11.90;2.47;;;;;;;8.19;73.28;101294.34;5042106;28;20061;-60
2021/11/21 08:14:34;;;;;;;14.13;2.33;;;;;;;8.45;71.98;101305.19;5039426;28;20041;-60
2021/11/21 08:17:00;;;;;;;13.48;2.47;;;;;;;8.58;71.87;101307.06;5038680;28;20029;-60
2021/11/21 08:19:25;;;;;;;11.15;2.10;;;;;;;8.72;70.66;101303.63;5037967;28;20114;-59
2021/11/21 08:21:50;;;;;;;11.55;2.45;;;;;;;8.78;70.15;101307.69;5041769;28;20041;-59
2021/11/21 08:24:16;;;;;;;12.35;2.47;;;;;;;8.76;71.05;101313.97;5041692;28;20025;-58
2021/11/21 08:26:41;;;;;;;11.15;2.38;;;;;;;8.74;70.90;101307.00;5035903;28;20065;-59
2021/11/21 08:29:07;;;;;;;14.15;3.22;;;;;;;8.70;70.82;101302.84;5040682;28;20109;-59
2021/11/21 08:31:32;;;;;;;17.17;2.92;;;;;;;8.73;71.38;101307.09;5040946;28;20045;-60
2021/11/21 08:33:57;;;;;;;14.50;2.45;;;;;;;8.95;71.32;101304.03;5040439;28;20481;-59
2021/11/21 08:36:23;;;;;;;11.30;1.95;;;;;;;9.33;69.80;101298.22;5037176;28;20029;-59
2021/11/21 08:38:48;;;;;;;10.07;2.10;;;;;;;9.39;68.33;101308.38;5034748;28;20040;-60
2021/11/21 08:41:14;;;;;;;19.52;3.00;;;;;;;9.40;68.61;101304.81;5037905;28;20026;-59
2021/11/21 08:43:39;;;;;;;18.08;2.55;;;;;;;9.38;67.82;101306.72;5034793;28;20029;-59
2021/11/21 08:46:04;;;;;;;15.90;2.90;;;;;;;9.47;66.87;101301.78;5034899;28;20084;-60
2021/11/21 08:48:31;;;;;;;19.70;3.53;;;;;;;9.75;66.03;101297.44;5038567;28;20030;-60
2021/11/21 08:50:57;;;;;;;13.52;2.55;;;;;;;10.31;64.58;101300.00;5034951;28;20135;-60
2021/11/21 08:53:22;;;;;;;15.85;2.90;;;;;;;10.42;63.83;101302.81;5035931;28;20117;-59
2021/11/21 08:55:48;;;;;;;12.10;2.08;;;;;;;10.37;64.35;101305.75;5037673;28;20482;-60
2021/11/21 08:58:13;;;;;;;17.83;2.75;;;;;;;10.25;64.49;101305.69;5034655;28;20485;-60
2021/11/21 09:00:38;;;;;;;9.18;2.30;;;;;;;9.97;63.97;101303.03;5036717;28;20127;-60
2021/11/21 09:03:04;;;;;;;12.88;2.67;;;;;;;9.73;64.36;101306.31;5036126;28;20048;-60
2021/11/21 09:05:30;;;;;;;15.25;2.63;;;;;;;9.55;65.36;101307.44;5035632;28;20457;-60
2021/11/21 09:07:55;;;;;;;11.20;2.58;;;;;;;9.37;65.01;101304.13;5033971;28;20412;-59
2021/11/21 09:10:22;;;;;;;13.63;2.33;;;;;;;9.28;65.14;101305.59;5033877;28;20044;-59
2021/11/21 09:12:48;;;;;;;12.80;2.42;;;;;;;9.28;64.78;101316.13;5033409;28;20049;-59
2021/11/21 09:15:17;;;;;;;11.45;2.40;;;;;;;9.42;64.63;101309.16;5043489;28;20029;-59
2021/11/21 09:17:43;;;;;;;8.35;2.30;;;;;;;10.34;62.80;101307.72;5036015;28;20502;-61
2021/11/21 09:20:09;;;;;;;15.77;2.45;;;;;;;11.86;59.05;101304.38;5038204;28;20081;-58
2021/11/21 09:22:35;;;;;;;11.60;2.88;;;;;;;13.22;55.03;101306.69;5038288;28;20108;-59
2021/11/21 09:25:00;;;;;;;14.88;2.80;;;;;;;14.36;52.52;101301.22;5041173;28;20033;-59
2021/11/21 09:27:26;;;;;;;12.30;2.20;;;;;;;14.78;50.30;101296.81;5038967;28;20065;-59
2021/11/21 09:29:51;;;;;;;9.50;2.28;;;;;;;15.46;49.24;101303.47;5038191;28;20049;-59
2021/11/21 09:32:16;;;;;;;15.10;2.38;;;;;;;15.99;48.36;101305.03;5032886;28;20033;-60
2021/11/21 09:34:42;;;;;;;11.60;2.90;;;;;;;16.48;46.79;101307.75;5036761;28;20094;-61
2021/11/21 09:37:08;;;;;;;13.05;2.75;;;;;;;17.06;45.55;101311.34;5033857;28;20385;-59
2021/11/21 09:39:34;;;;;;;10.90;1.98;;;;;;;17.70;43.33;101314.19;5037857;28;20029;-59
2021/11/21 09:42:00;;;;;;;10.57;2.45;;;;;;;18.04;42.67;101314.44;5040670;28;20037;-59
2021/11/21 09:44:26;;;;;;;10.57;2.08;;;;;;;17.94;42.87;101314.50;5041070;28;20021;-60
2021/11/21 09:46:52;;;;;;;15.45;2.30;;;;;;;18.47;41.78;101317.34;5041636;28;20035;-60
2021/11/21 09:49:19;;;;;;;14.73;2.55;;;;;;;18.91;40.35;101313.88;5036250;28;20051;-60
2021/11/21 09:51:45;;;;;;;10.20;2.40;;;;;;;19.28;38.89;101307.38;5037483;28;20029;-59
2021/11/21 09:54:11;;;;;;;12.95;2.88;;;;;;;19.33;39.08;101312.25;5036511;28;20040;-61
2021/11/21 09:56:36;;;;;;;7.35;2.05;;;;;;;19.12;38.98;101316.16;5035701;28;20056;-59
2021/11/21 09:59:01;;;;;;;10.05;2.30;;;;;;;19.00;39.19;101312.91;5040494;28;20127;-61
2021/11/21 10:01:42;;;;;;;8.52;2.13;;;;;;;19.18;39.05;101303.97;5040133;28;20048;-60
2021/11/21 10:04:10;;;;;;;7.80;2.08;;;;;;;19.70;38.08;101321.81;5040695;28;20025;-63
2021/11/21 10:06:37;;;;;;;7.57;2.20;;;;;;;19.68;38.78;101315.75;5041387;28;20033;-60
2021/11/21 10:09:05;;;;;;;9.40;2.22;;;;;;;19.88;37.79;101313.66;5042688;28;20543;-60
2021/11/21 10:11:30;;;;;;;4.68;1.73;;;;;;;20.16;37.36;101306.16;5036972;28;20132;-61
2021/11/21 10:14:05;;;;;;;9.70;2.00;;;;;;;20.00;37.66;101314.22;5038033;28;20040;-59
2021/11/21 10:16:31;;;;;;;7.40;1.77;;;;;;;20.09;37.39;101307.84;5040015;28;20037;-60
2021/11/21 10:18:59;;;;;;;9.10;1.88;;;;;;;20.45;36.59;101312.94;5038137;28;20037;-60
2021/11/21 10:21:30;;;;;;;7.43;2.25;;;;;;;20.06;37.42;101314.41;5033676;28;20112;-59
2021/11/21 10:24:40;;;;;;;10.27;2.58;;;;;;;20.38;36.21;101312.75;5039604;28;20033;-60
2021/11/21 10:27:19;;;;;;;5.80;1.83;;;;;;;20.12;36.54;101309.38;5045808;28;20203;-61
2021/11/21 10:29:54;;;;;;;6.25;2.00;;;;;;;20.42;36.16;101311.41;5042185;28;20103;-60
2021/11/21 10:32:30;;;;;;;9.15;2.47;;;;;;;20.91;36.18;101313.28;5040742;28;20124;-60
2021/11/21 10:35:04;;;;;;;9.38;2.17;;;;;;;20.51;36.29;101301.50;5040816;28;20051;-60
2021/11/21 10:37:35;;;;;;;12.30;2.33;;;;;;;20.38;35.73;101311.91;5037515;28;20072;-60
2021/11/21 10:40:07;;;;;;;5.13;1.83;;;;;;;20.24;35.55;101311.56;5043029;28;20033;-60
2021/11/21 10:42:35;;;;;;;9.07;2.20;;;;;;;20.04;35.43;101310.19;5044657;28;20033;-60
2021/11/21 10:45:01;;;;;;;8.85;2.90;;;;;;;20.26;35.29;101309.53;5040542;28;20540;-61
2021/11/21 10:47:42;;;;;;;9.98;4.30;;;;;;;20.98;34.23;101320.63;5040228;28;20093;-58
2021/11/21 10:50:07;;;;;;;8.35;2.00;;;;;;;20.29;36.07;101308.38;5038500;28;20033;-60
2021/11/21 10:52:43;;;;;;;7.90;2.22;;;;;;;21.22;34.52;101312.50;5040026;28;20062;-59
2021/11/21 10:55:14;;;;;;;5.10;1.67;;;;;;;21.07;35.08;101316.94;5044530;28;20047;-59
2021/11/21 10:57:39;;;;;;;7.63;2.10;;;;;;;21.33;34.19;101310.44;5037861;28;20049;-61
2021/11/21 11:00:28;;;;;;;8.32;2.05;;;;;;;21.49;35.09;101302.31;5039969;28;20034;-60
2021/11/21 11:02:53;;;;;;;8.82;2.20;;;;;;;21.95;33.93;101307.03;5037188;28;20031;-62
2021/11/21 11:05:21;;;;;;;10.35;2.30;;;;;;;21.95;34.51;101308.84;5038395;28;20405;-61
2021/11/21 11:07:46;;;;;;;6.88;2.25;;;;;;;21.85;33.87;101309.91;5047011;28;20481;-59
2021/11/21 11:10:16;;;;;;;9.30;2.30;;;;;;;19.36;37.23;101306.56;5042801;28;20062;-61
2021/11/21 11:12:43;;;;;;;5.95;2.03;;;;;;;17.78;40.76;101314.25;5047442;28;20063;-60
2021/11/21 11:15:09;;;;;;;12.95;2.45;;;;;;;16.76;42.89;101318.53;5046452;28;20033;-59
2021/11/21 11:17:35;;;;;;;14.15;2.90;;;;;;;15.71;44.82;101314.63;5043154;28;20141;-60
2021/11/21 11:20:03;;;;;;;11.07;2.75;;;;;;;15.35;45.87;101308.88;5039256;28;20038;-59
2021/11/21 11:22:29;;;;;;;11.02;2.60;;;;;;;15.88;44.93;101318.50;5042749;28;20029;-61